Leisure, Indiana
Current Conditions -  °F | °C
As of 10:55 AM on Thursday 30 Oct 2014 (Local Time) from KMZZ Reporting Station
Overcast Overcast  
Wind Chill: 45°   Ceiling: 3700
Heat Index: 45°   Visibility: 10mi
Dew Point: 35°   Wind: 3mph
Humidity: 69%   Direction: 260°W
Pressure: 30.17"   Gusts: NA
Location:  40.3067°N, 85.834°W
Report Text: KMZZ 301455Z AUTO 26003KT 10SM OVC037 07/02 A3017 RMK AO2 T00720018
Loading
Personal Weather Stations






























Interactive Weather Map
Tropical Storm Tracking
New forecast layout! Learn more

10-Day Weather Forecast

Advertisements
Track Severe Weather on mobile